Página principal
METAR-TAF:

METAR-TAF

Aeroportos :

Aeroporto de Yakutsk

Yakutsk, Rússia

latitude: 62-01N, longitude: 129-43E, altura: 103 m

Observação actual do tempo

O boletim foi feito há 36 minutos, às 12:30 UTC
Vento 4 kt de oes-noroeste
Temperatura -29°C
Humidade 75%
Pressão 1017 hPa
Visibilidade 10 km ou mais
sem nuvens abaixo de 1500 metros e sem cumulonimbus

METAR: UEEE 161230Z 29002MPS CAVOK M29/M32 Q1017 R23L/490143 NOSIG RMK QFE754

Hora: 22:06 (13:06 UTC)

Previsão

O boletim foi feito há 2 horas e 6 minutos, às 11:00 UTC
Previsão válida de 16 às 12 UTC a 17 às 18 UTC
Vento 6 kt de noroeste com rajadas de 16 kt
Visibilidade 10 km ou mais
Nuvens fragmentadasa uma altura de 2000 ft
Encobertoa uma altura de 7000 ft
Temporariamente
de 16 às 12 UTC a 17 às 05 UTC
Vento 2 kt com direcção variável
Visibilidade: 0300 m
a uma altura de 200 ft
neve, nevoeiro

TAF: UEEE 161100Z 1612/1718 31003G08MPS 9999 BKN020 OVC070 TEMPO 1612/1705 VRB01MPS 0300 SN FG VV002

Observações e previsões do tempo de mais de 4000 aeroportos (mensagens METAR e TAF).

As estações disponíveis são os pontos amarelos e vermelhos sobre o mapa.

Mova o rato sobre o mapa para ver o nome da estação.

Depois clique no ponto para visualizar as observações e previsões meteorológicas.

Para alterar o mapa : clique nos botões verdes com uma cruz preta para aumentar o zoom; no botão verde com uma pitada de zoom; ou nas setas verdes para mapas adjacentes.


METAR-TAF: